Time;durP1;ratioP1;P1;durP2;ratioP2;P2;SDS_P1;SDS_P2;PMS_P1;PMS_P2;Temp;Humidity;BMP_temperature;BMP_pressure;BME280_temperature;BME280_humidity;BME280_pressure;Samples;Min_cycle;Max_cycle;Signal;HPM_P1;HPM_P2
2023/06/18 00:01:56;;;;;;;2.60;2.40;;;;;;;18.23;100.00;98901.72;5115217;28;20281;-72
2023/06/18 00:04:22;;;;;;;2.67;2.47;;;;;;;18.16;100.00;98899.25;5115235;28;20198;-72
2023/06/18 00:06:49;;;;;;;2.83;2.67;;;;;;;18.24;100.00;98906.00;5115406;28;20247;-72
2023/06/18 00:09:16;;;;;;;3.17;3.03;;;;;;;18.25;100.00;98903.06;5115238;28;20198;-72
2023/06/18 00:11:44;;;;;;;4.30;2.33;;;;;;;18.37;100.00;98905.59;5114932;28;20195;-72
2023/06/18 00:14:11;;;;;;;2.63;2.53;;;;;;;18.36;100.00;98903.97;5114772;28;20680;-71
2023/06/18 00:16:38;;;;;;;2.97;2.80;;;;;;;18.34;100.00;98898.84;5115078;28;20192;-72
2023/06/18 00:19:04;;;;;;;3.13;2.73;;;;;;;18.40;100.00;98897.00;5114986;28;20247;-72
2023/06/18 00:21:31;;;;;;;2.60;2.50;;;;;;;18.34;100.00;98911.50;5114705;28;20195;-72
2023/06/18 00:23:58;;;;;;;2.87;2.77;;;;;;;18.32;100.00;98905.53;5114922;28;20255;-71
2023/06/18 00:26:25;;;;;;;3.63;2.57;;;;;;;18.42;100.00;98903.75;5114885;28;20196;-71
2023/06/18 00:28:53;;;;;;;2.93;2.83;;;;;;;18.41;100.00;98906.69;5115139;28;20202;-72
2023/06/18 00:31:21;;;;;;;3.57;3.37;;;;;;;18.22;100.00;98870.53;5114551;28;20646;-72
2023/06/18 00:33:47;;;;;;;3.07;2.77;;;;;;;18.45;100.00;98907.78;5114367;28;20677;-72
2023/06/18 00:36:15;;;;;;;3.60;3.10;;;;;;;18.38;100.00;98912.59;5114472;28;20199;-71
2023/06/18 00:38:46;;;;;;;2.70;2.60;;;;;;;18.40;100.00;98902.38;5114709;28;20219;-72
2023/06/18 00:41:16;;;;;;;3.17;2.97;;;;;;;18.46;100.00;98901.34;5114687;28;20184;-71
2023/06/18 00:43:43;;;;;;;3.70;3.40;;;;;;;18.43;100.00;98899.19;5114393;28;20195;-71
2023/06/18 00:46:12;;;;;;;4.10;2.97;;;;;;;18.41;100.00;98891.38;5114092;28;20240;-72
2023/06/18 00:48:40;;;;;;;3.60;3.20;;;;;;;18.36;100.00;98904.78;5114038;28;20723;-72
2023/06/18 00:51:07;;;;;;;2.80;2.70;;;;;;;18.38;99.43;98907.22;5114383;28;20258;-72
2023/06/18 00:53:34;;;;;;;3.07;2.87;;;;;;;18.44;99.75;98900.78;5114024;28;20689;-72
2023/06/18 00:56:01;;;;;;;2.87;2.77;;;;;;;18.36;99.19;98885.16;5114001;28;20655;-72
2023/06/18 00:58:27;;;;;;;3.30;2.60;;;;;;;18.49;98.98;98893.56;5114222;28;20301;-71
2023/06/18 01:00:54;;;;;;;3.27;3.10;;;;;;;18.43;99.21;98899.19;5113976;28;20732;-72
2023/06/18 01:03:25;;;;;;;3.80;2.70;;;;;;;18.38;99.17;98894.56;5114099;28;20200;-71
2023/06/18 01:05:56;;;;;;;3.10;2.73;;;;;;;18.44;98.11;98896.22;5113842;28;20179;-71
2023/06/18 01:08:23;;;;;;;2.80;2.70;;;;;;;18.52;98.21;98897.59;5113736;28;20191;-71
2023/06/18 01:11:01;;;;;;;2.73;2.57;;;;;;;18.46;97.97;98901.34;5112964;28;20277;-71
2023/06/18 01:13:30;;;;;;;5.03;3.30;;;;;;;18.50;97.26;98897.06;5113659;28;20187;-71
2023/06/18 01:16:03;;;;;;;3.13;3.00;;;;;;;18.44;97.86;98898.94;5113645;28;20666;-71
2023/06/18 01:18:34;;;;;;;3.27;3.10;;;;;;;18.46;97.29;98904.03;5113901;28;20210;-71
2023/06/18 01:21:05;;;;;;;2.63;2.53;;;;;;;18.49;97.49;98903.50;5113852;28;20278;-71
2023/06/18 01:23:45;;;;;;;3.90;3.57;;;;;;;18.49;97.21;98906.19;5113506;28;20266;-71
2023/06/18 01:26:12;;;;;;;3.47;3.17;;;;;;;18.48;97.08;98904.56;5113780;28;20236;-72
2023/06/18 01:28:40;;;;;;;3.17;2.93;;;;;;;18.44;97.01;98908.84;5113349;28;20230;-71
2023/06/18 01:31:07;;;;;;;3.00;2.80;;;;;;;18.46;96.92;98907.53;5113501;28;20239;-71
2023/06/18 01:33:36;;;;;;;3.17;2.97;;;;;;;18.47;96.33;98911.03;5113175;28;20191;-71
2023/06/18 01:36:04;;;;;;;3.87;3.07;;;;;;;18.50;96.94;98911.31;5113532;28;20193;-71
2023/06/18 01:38:34;;;;;;;3.57;3.23;;;;;;;18.46;96.04;98909.44;5113078;28;20219;-71
2023/06/18 01:41:09;;;;;;;2.90;2.70;;;;;;;18.48;96.61;98907.28;5113616;28;20267;-71
2023/06/18 01:43:41;;;;;;;3.30;3.07;;;;;;;18.50;96.36;98913.22;5113518;28;20606;-71
2023/06/18 01:46:10;;;;;;;3.77;3.57;;;;;;;18.51;95.51;98912.13;5113062;28;20192;-71
2023/06/18 01:48:43;;;;;;;3.67;3.47;;;;;;;18.47;95.68;98921.78;5113181;28;20194;-71
2023/06/18 01:51:12;;;;;;;2.90;2.70;;;;;;;18.54;95.08;98923.16;5113361;28;20246;-71
2023/06/18 01:53:41;;;;;;;4.70;3.40;;;;;;;18.25;94.58;98875.41;5112961;28;20247;-71
2023/06/18 01:56:09;;;;;;;3.80;3.53;;;;;;;18.54;94.38;98935.84;5112830;28;20724;-71
2023/06/18 01:58:37;;;;;;;3.40;3.20;;;;;;;18.58;94.08;98945.00;5112338;28;20226;-71
2023/06/18 02:01:03;;;;;;;3.60;3.40;;;;;;;18.53;94.88;98931.50;5112769;28;20286;-71
2023/06/18 02:03:30;;;;;;;3.80;3.00;;;;;;;18.37;94.54;98916.34;5112972;28;20192;-71
2023/06/18 02:05:58;;;;;;;3.60;3.40;;;;;;;18.57;94.18;98946.03;5112658;28;20675;-71
2023/06/18 02:08:26;;;;;;;3.50;3.30;;;;;;;18.60;93.92;98948.22;5112615;28;20668;-72
2023/06/18 02:10:53;;;;;;;3.03;2.90;;;;;;;18.60;93.16;98942.84;5112635;28;20653;-71
2023/06/18 02:13:20;;;;;;;3.53;3.33;;;;;;;18.60;93.25;98950.91;5112659;28;20188;-71
2023/06/18 02:15:46;;;;;;;3.90;3.60;;;;;;;18.62;92.76;98951.47;5112703;28;20653;-71
2023/06/18 02:18:13;;;;;;;4.50;3.63;;;;;;;18.71;92.87;98953.38;5112671;28;20278;-70
2023/06/18 02:20:40;;;;;;;3.63;3.50;;;;;;;18.64;92.99;98954.72;5112287;28;20622;-71
2023/06/18 02:23:08;;;;;;;5.40;4.00;;;;;;;18.56;92.63;98942.56;5112444;28;20196;-71
2023/06/18 02:25:35;;;;;;;4.57;3.60;;;;;;;18.57;92.63;98962.19;5112654;28;20188;-71
2023/06/18 02:28:03;;;;;;;3.83;3.53;;;;;;;18.60;92.17;98961.69;5112707;28;20202;-71
2023/06/18 02:30:30;;;;;;;4.60;4.17;;;;;;;18.59;92.28;98970.81;5112475;28;20642;-72
2023/06/18 02:33:00;;;;;;;3.63;3.33;;;;;;;18.70;91.63;98961.75;5112675;28;20192;-72
2023/06/18 02:35:27;;;;;;;4.40;3.30;;;;;;;18.63;91.08;98975.41;5112241;28;20201;-72
2023/06/18 02:37:55;;;;;;;3.90;3.70;;;;;;;18.77;90.96;98975.75;5112566;28;20219;-72
2023/06/18 02:40:23;;;;;;;3.70;3.50;;;;;;;18.69;91.19;98968.19;5112627;28;20194;-70
2023/06/18 02:42:50;;;;;;;4.33;3.60;;;;;;;18.73;90.47;98974.66;5112264;28;20250;-70
2023/06/18 02:45:18;;;;;;;4.47;4.03;;;;;;;18.78;90.43;98980.88;5112064;28;20695;-71
2023/06/18 02:47:45;;;;;;;4.30;4.10;;;;;;;18.75;90.67;98981.41;5112542;28;20200;-71
2023/06/18 02:50:13;;;;;;;4.73;4.13;;;;;;;18.75;90.67;98984.09;5112352;28;20247;-71
2023/06/18 02:52:40;;;;;;;3.87;3.67;;;;;;;18.79;90.45;98987.09;5112587;28;20208;-71
2023/06/18 02:55:08;;;;;;;3.83;3.63;;;;;;;18.82;90.01;98987.38;5112341;28;20194;-72
2023/06/18 02:57:37;;;;;;;4.20;4.00;;;;;;;18.82;89.86;98989.22;5112365;28;20278;-71
2023/06/18 03:00:05;;;;;;;4.57;4.23;;;;;;;18.89;89.61;98989.81;5112223;28;20197;-72
2023/06/18 03:02:32;;;;;;;4.37;4.17;;;;;;;18.94;89.67;98990.66;5112674;28;20285;-71
2023/06/18 03:04:59;;;;;;;4.77;4.47;;;;;;;18.88;90.05;98993.59;5111928;28;20194;-71
2023/06/18 03:07:26;;;;;;;4.20;4.00;;;;;;;18.89;89.60;98990.63;5112320;28;20191;-71
2023/06/18 03:09:53;;;;;;;4.47;4.10;;;;;;;18.91;90.11;98998.47;5112351;28;20292;-71
2023/06/18 03:12:19;;;;;;;4.23;4.03;;;;;;;19.11;88.96;99001.25;5111919;28;20243;-70
2023/06/18 03:14:48;;;;;;;4.63;4.43;;;;;;;19.36;87.85;99001.38;5111913;28;20657;-70
2023/06/18 03:17:14;;;;;;;4.27;4.07;;;;;;;19.55;86.77;99010.56;5112232;28;20192;-70
2023/06/18 03:19:41;;;;;;;4.70;4.40;;;;;;;19.57;86.44;99019.22;5112067;28;20219;-70
2023/06/18 03:22:08;;;;;;;4.83;4.37;;;;;;;19.54;86.58;99020.56;5112118;28;20190;-70
2023/06/18 03:24:35;;;;;;;7.40;4.23;;;;;;;19.57;86.55;99030.00;5112095;28;20248;-70
2023/06/18 03:27:01;;;;;;;5.03;4.63;;;;;;;19.50;86.63;99024.84;5111849;28;20696;-71
2023/06/18 03:29:29;;;;;;;4.50;4.30;;;;;;;19.47;86.77;99033.47;5111730;28;20195;-71
2023/06/18 03:31:57;;;;;;;4.60;4.40;;;;;;;19.45;87.12;99035.59;5112245;28;20239;-72
2023/06/18 03:34:24;;;;;;;4.80;4.50;;;;;;;19.46;87.16;99031.03;5112733;28;20620;-72
2023/06/18 03:36:51;;;;;;;4.77;4.57;;;;;;;19.51;87.15;99033.72;5115627;28;20195;-71
2023/06/18 03:39:18;;;;;;;5.57;5.27;;;;;;;19.60;87.09;99035.66;5115453;28;20791;-72
2023/06/18 03:41:45;;;;;;;5.07;4.67;;;;;;;19.59;86.88;99027.81;5115850;28;20196;-72
2023/06/18 03:44:12;;;;;;;5.20;4.43;;;;;;;19.63;86.80;99027.03;5115756;28;20187;-72
2023/06/18 03:46:39;;;;;;;5.20;4.90;;;;;;;19.68;87.00;99031.63;5115330;28;20191;-72
2023/06/18 03:49:07;;;;;;;4.83;4.53;;;;;;;19.70;87.15;99034.88;5115746;28;20194;-71
2023/06/18 03:51:34;;;;;;;5.10;4.80;;;;;;;19.79;86.83;99036.78;5115546;28;20246;-72
2023/06/18 03:54:01;;;;;;;5.10;4.80;;;;;;;19.70;86.53;99024.09;5097653;28;20193;-73
2023/06/18 03:56:28;;;;;;;6.10;5.50;;;;;;;19.87;86.60;99035.44;5115160;28;20250;-72
2023/06/18 03:58:54;;;;;;;5.17;4.60;;;;;;;20.01;85.96;99041.97;5115445;28;20229;-72
2023/06/18 04:01:21;;;;;;;5.70;5.40;;;;;;;20.18;85.38;99047.94;5115381;28;20189;-72
2023/06/18 04:03:48;;;;;;;6.13;5.17;;;;;;;20.27;84.49;99062.50;5114965;28;20198;-74
2023/06/18 04:06:16;;;;;;;6.60;5.57;;;;;;;20.35;84.25;99059.28;5114857;28;20674;-73
2023/06/18 04:08:43;;;;;;;4.90;4.50;;;;;;;20.59;83.54;99060.34;5114894;28;20198;-70
2023/06/18 04:11:09;;;;;;;5.40;4.90;;;;;;;20.48;83.02;99069.53;5115089;28;20281;-71
2023/06/18 04:13:36;;;;;;;6.00;5.60;;;;;;;20.48;83.25;99064.94;5114969;28;20191;-72
2023/06/18 04:16:03;;;;;;;5.63;5.30;;;;;;;20.54;83.31;99063.84;5114494;28;20252;-71
2023/06/18 04:18:30;;;;;;;5.77;5.27;;;;;;;20.65;83.07;99071.97;5114995;28;20309;-72
2023/06/18 04:20:57;;;;;;;9.33;5.10;;;;;;;20.87;82.13;99084.09;5114586;28;20662;-71
2023/06/18 04:23:25;;;;;;;5.10;4.90;;;;;;;20.91;81.65;99085.19;5114774;28;20248;-71
2023/06/18 04:25:51;;;;;;;5.93;5.60;;;;;;;20.94;81.30;99087.31;5114664;28;20202;-72
2023/06/18 04:28:18;;;;;;;6.20;5.60;;;;;;;20.66;81.76;99087.88;5114904;28;20207;-71
2023/06/18 04:30:45;;;;;;;5.60;5.20;;;;;;;20.52;83.17;99081.41;5114540;28;20234;-71
2023/06/18 04:33:11;;;;;;;5.87;5.47;;;;;;;20.49;83.54;99061.16;5114471;28;20191;-71
2023/06/18 04:35:38;;;;;;;5.57;5.20;;;;;;;20.53;83.49;99073.03;5114551;28;20195;-71
2023/06/18 04:38:06;;;;;;;5.70;5.40;;;;;;;20.37;83.93;99073.28;5114571;28;20577;-71
2023/06/18 04:40:34;;;;;;;6.07;5.60;;;;;;;20.31;84.60;99077.06;5114699;28;20219;-70
2023/06/18 04:43:00;;;;;;;6.00;5.60;;;;;;;20.16;84.94;99077.06;5114278;28;20618;-70
2023/06/18 04:45:27;;;;;;;6.10;5.70;;;;;;;20.06;85.30;99077.00;5114339;28;20191;-72
2023/06/18 04:47:54;;;;;;;6.37;5.73;;;;;;;19.98;85.42;99085.63;5114246;28;20194;-72
2023/06/18 04:50:21;;;;;;;6.20;5.90;;;;;;;20.02;85.80;99081.31;5114451;28;20218;-71
2023/06/18 04:52:48;;;;;;;6.00;5.70;;;;;;;20.06;86.19;99090.50;5114183;28;20686;-72
2023/06/18 04:55:15;;;;;;;6.00;5.70;;;;;;;20.19;85.32;99100.78;5114099;28;20190;-72
2023/06/18 04:57:43;;;;;;;5.23;4.97;;;;;;;20.06;85.66;99099.38;5114093;28;20214;-72
2023/06/18 05:00:11;;;;;;;6.00;5.50;;;;;;;20.13;85.52;99104.53;5113871;28;20283;-73
2023/06/18 05:02:37;;;;;;;5.83;5.50;;;;;;;20.19;85.48;99100.78;5113793;28;20701;-72
2023/06/18 05:05:05;;;;;;;6.13;5.83;;;;;;;20.11;85.27;99098.63;5114082;28;20273;-73
2023/06/18 05:07:32;;;;;;;6.23;5.80;;;;;;;20.07;85.85;99106.41;5113691;28;20187;-72
2023/06/18 05:09:58;;;;;;;5.90;5.60;;;;;;;20.00;85.63;99100.47;5113774;28;20224;-72
2023/06/18 05:12:25;;;;;;;5.80;5.43;;;;;;;19.99;85.87;99103.41;5113968;28;20275;-72
2023/06/18 05:14:53;;;;;;;5.30;5.00;;;;;;;20.04;85.67;99116.91;5114066;28;20225;-72
2023/06/18 05:17:20;;;;;;;6.07;5.77;;;;;;;20.11;86.14;99110.22;5113839;28;20194;-72
2023/06/18 05:19:47;;;;;;;5.93;5.73;;;;;;;20.15;86.50;99113.19;5113514;28;20222;-71
2023/06/18 05:22:14;;;;;;;6.17;5.77;;;;;;;20.19;85.60;99120.50;5113934;28;20202;-72
2023/06/18 05:24:40;;;;;;;6.30;6.00;;;;;;;20.29;85.47;99125.06;5113831;28;20191;-72
2023/06/18 05:27:07;;;;;;;6.03;5.63;;;;;;;20.13;85.01;99126.94;5113610;28;20198;-72
2023/06/18 05:29:34;;;;;;;5.80;5.50;;;;;;;20.13;85.97;99126.13;5114020;28;20251;-72
2023/06/18 05:32:03;;;;;;;6.50;6.10;;;;;;;20.37;85.85;99132.66;5113795;28;20218;-73
2023/06/18 05:34:30;;;;;;;6.80;6.10;;;;;;;20.41;85.18;99131.03;5113755;28;20248;-72
2023/06/18 05:36:57;;;;;;;7.23;6.43;;;;;;;20.39;85.47;99135.91;5113632;28;20236;-71
2023/06/18 05:39:23;;;;;;;6.37;5.87;;;;;;;20.59;84.93;99141.31;5113425;28;20590;-72
2023/06/18 05:41:50;;;;;;;7.43;6.83;;;;;;;20.70;84.27;99142.94;5113130;28;20255;-71
2023/06/18 05:44:17;;;;;;;7.30;6.30;;;;;;;20.62;83.99;99142.66;5113116;28;20190;-72
2023/06/18 05:46:44;;;;;;;6.90;6.37;;;;;;;20.48;84.02;99145.09;5112749;28;20195;-72
2023/06/18 05:49:12;;;;;;;5.90;5.57;;;;;;;20.55;84.04;99148.34;5112892;28;20191;-73
2023/06/18 05:51:38;;;;;;;7.00;6.60;;;;;;;20.56;84.22;99152.66;5112594;28;20626;-72
2023/06/18 05:54:05;;;;;;;8.10;7.03;;;;;;;20.72;84.18;99158.84;5112911;28;20247;-72
2023/06/18 05:56:32;;;;;;;7.07;6.67;;;;;;;20.89;83.59;99157.53;5112559;28;20186;-71
2023/06/18 05:58:58;;;;;;;7.07;6.57;;;;;;;20.90;83.28;99148.31;5112358;28;20350;-72
2023/06/18 06:01:25;;;;;;;6.97;6.63;;;;;;;20.85;83.14;99161.84;5112766;28;20270;-72
2023/06/18 06:03:52;;;;;;;7.23;6.63;;;;;;;20.90;82.70;99156.44;5112887;28;20187;-73
2023/06/18 06:06:20;;;;;;;7.20;6.60;;;;;;;20.84;82.89;99159.41;5112595;28;20191;-73
2023/06/18 06:08:47;;;;;;;6.93;6.47;;;;;;;20.80;82.79;99159.13;5112744;28;20190;-72
2023/06/18 06:11:14;;;;;;;7.00;6.70;;;;;;;20.84;82.81;99165.63;5112297;28;20203;-73
2023/06/18 06:13:40;;;;;;;7.10;6.80;;;;;;;20.89;82.88;99162.91;5112225;28;20615;-72
2023/06/18 06:16:07;;;;;;;7.53;7.03;;;;;;;21.00;82.55;99167.28;5112369;28;20194;-72
2023/06/18 06:18:34;;;;;;;6.90;6.60;;;;;;;20.97;82.02;99170.50;5112099;28;20247;-72
2023/06/18 06:21:00;;;;;;;6.67;6.37;;;;;;;20.96;82.24;99168.91;5112253;28;20654;-72
2023/06/18 06:23:28;;;;;;;7.13;6.63;;;;;;;20.91;82.20;99171.59;5112336;28;20190;-72
2023/06/18 06:25:55;;;;;;;6.77;6.27;;;;;;;20.87;82.49;99170.50;5112021;28;20202;-73
2023/06/18 06:28:22;;;;;;;6.60;6.20;;;;;;;21.03;82.50;99165.91;5112203;28;20933;-73
2023/06/18 06:30:49;;;;;;;7.37;6.97;;;;;;;21.12;82.63;99172.38;5112498;28;20295;-72
2023/06/18 06:33:15;;;;;;;8.20;5.83;;;;;;;21.11;82.03;99170.78;5111938;28;20623;-72
2023/06/18 06:35:42;;;;;;;6.57;6.07;;;;;;;21.12;81.88;99172.38;5112619;28;20252;-72
2023/06/18 06:38:09;;;;;;;6.60;6.10;;;;;;;21.12;82.21;99167.81;5112460;28;20205;-72
2023/06/18 06:40:37;;;;;;;7.03;6.60;;;;;;;21.12;81.80;99172.38;5112264;28;20218;-71
2023/06/18 06:43:04;;;;;;;6.73;6.43;;;;;;;20.95;82.17;99155.66;5111368;28;20220;-71
2023/06/18 06:45:30;;;;;;;7.13;6.70;;;;;;;21.13;81.81;99166.72;5112129;28;20194;-70
2023/06/18 06:47:58;;;;;;;7.30;6.60;;;;;;;21.06;82.25;99168.09;5112043;28;20255;-71
2023/06/18 06:50:25;;;;;;;7.47;6.90;;;;;;;21.10;82.42;99177.28;5111747;28;20194;-71
2023/06/18 06:52:51;;;;;;;7.13;6.57;;;;;;;21.33;82.03;99168.56;5112316;28;20274;-71
2023/06/18 06:55:18;;;;;;;7.67;7.17;;;;;;;21.29;82.43;99176.44;5112168;28;20194;-71
2023/06/18 06:57:46;;;;;;;8.87;8.27;;;;;;;21.42;81.96;99177.72;5112299;28;20558;-71
2023/06/18 07:00:13;;;;;;;8.13;7.63;;;;;;;21.45;81.19;99183.44;5112050;28;20220;-71
2023/06/18 07:02:40;;;;;;;7.03;6.53;;;;;;;21.48;81.25;99185.56;5111819;28;20226;-71
2023/06/18 07:05:08;;;;;;;7.87;7.10;;;;;;;21.46;81.70;99185.03;5111568;28;20216;-71
2023/06/18 07:07:36;;;;;;;7.30;6.80;;;;;;;21.58;81.98;99193.66;5111902;28;20225;-71
2023/06/18 07:10:04;;;;;;;6.57;6.27;;;;;;;21.44;81.82;99198.00;5115770;28;20195;-73
2023/06/18 07:12:31;;;;;;;8.03;7.37;;;;;;;21.50;82.63;99191.50;5115528;28;20205;-72
2023/06/18 07:14:59;;;;;;;8.40;7.80;;;;;;;21.66;83.44;99192.28;5115790;28;20801;-72
2023/06/18 07:17:27;;;;;;;7.33;6.90;;;;;;;21.54;83.81;99192.59;5115581;28;20190;-73
2023/06/18 07:19:54;;;;;;;8.37;7.73;;;;;;;21.56;85.18;99193.09;5116137;28;20219;-72
2023/06/18 07:22:21;;;;;;;8.53;7.90;;;;;;;21.55;84.70;99193.41;5115843;28;20194;-72
2023/06/18 07:24:48;;;;;;;7.97;7.27;;;;;;;21.50;83.42;99206.91;5115777;28;20281;-72
2023/06/18 07:27:15;;;;;;;9.33;8.37;;;;;;;21.58;84.00;99199.06;5115934;28;20203;-72
2023/06/18 07:29:42;;;;;;;9.37;7.57;;;;;;;21.65;82.90;99199.59;5116099;28;20223;-71
2023/06/18 07:32:10;;;;;;;7.90;7.37;;;;;;;21.78;83.26;99206.34;5115932;28;20291;-71
2023/06/18 07:34:36;;;;;;;7.60;7.00;;;;;;;21.78;82.09;99209.03;5115911;28;20194;-72
2023/06/18 07:37:03;;;;;;;7.67;7.17;;;;;;;21.85;81.51;99207.66;5115197;28;20205;-73
2023/06/18 07:39:30;;;;;;;8.40;7.90;;;;;;;21.96;81.37;99211.94;5115276;28;20782;-73
2023/06/18 07:41:57;;;;;;;8.17;7.50;;;;;;;21.98;80.85;99219.78;5115477;28;20190;-72
2023/06/18 07:44:24;;;;;;;9.00;6.53;;;;;;;22.01;79.51;99214.63;5115587;28;20228;-72
2023/06/18 07:46:51;;;;;;;7.17;6.67;;;;;;;22.11;79.51;99219.19;5115238;28;20662;-72
2023/06/18 07:49:21;;;;;;;7.83;7.10;;;;;;;22.11;79.23;99217.31;5115512;28;20190;-72
2023/06/18 07:51:47;;;;;;;8.20;7.63;;;;;;;22.26;78.82;99228.03;5115554;28;20190;-72
2023/06/18 07:54:14;;;;;;;7.37;6.90;;;;;;;22.21;78.46;99224.56;5115233;28;20187;-72
2023/06/18 07:56:41;;;;;;;7.80;7.00;;;;;;;22.44;79.27;99222.00;5115269;28;20230;-72
2023/06/18 07:59:08;;;;;;;8.00;7.43;;;;;;;22.33;78.25;99222.34;5114947;28;20556;-72
2023/06/18 08:01:35;;;;;;;7.70;7.20;;;;;;;22.33;78.50;99223.16;5115298;28;20244;-72
2023/06/18 08:04:01;;;;;;;7.40;7.00;;;;;;;22.30;79.07;99212.88;5115242;28;20256;-73
2023/06/18 08:06:30;;;;;;;6.80;6.50;;;;;;;22.48;77.98;99228.53;5114783;28;20199;-72
2023/06/18 08:08:56;;;;;;;7.63;7.23;;;;;;;22.52;77.70;99229.59;5114822;28;20191;-72
2023/06/18 08:11:24;;;;;;;6.73;6.20;;;;;;;22.37;77.80;99235.03;5115150;28;20244;-72
2023/06/18 08:13:50;;;;;;;7.03;6.60;;;;;;;22.20;78.52;99231.88;5114417;28;20201;-72
2023/06/18 08:16:18;;;;;;;6.83;6.43;;;;;;;22.31;78.38;99225.34;5114598;28;20662;-72
2023/06/18 08:18:44;;;;;;;7.80;7.17;;;;;;;22.24;78.28;99219.41;5114724;28;20255;-72
2023/06/18 08:21:11;;;;;;;10.20;7.00;;;;;;;22.33;78.55;99231.25;5113810;28;20223;-72
2023/06/18 08:23:39;;;;;;;7.13;6.80;;;;;;;22.48;78.84;99236.66;5114561;28;20186;-72
2023/06/18 08:26:06;;;;;;;7.57;6.90;;;;;;;22.54;78.30;99235.50;5114497;28;20248;-72
2023/06/18 08:28:33;;;;;;;7.27;6.73;;;;;;;22.60;77.92;99237.13;5114622;28;20244;-72
2023/06/18 08:30:59;;;;;;;10.03;7.30;;;;;;;22.68;77.88;99228.41;5114443;28;20283;-73
2023/06/18 08:33:26;;;;;;;7.07;6.70;;;;;;;22.71;76.89;99241.34;5114165;28;20244;-72
2023/06/18 08:35:53;;;;;;;7.97;7.37;;;;;;;22.77;77.45;99240.25;5114267;28;20190;-71
2023/06/18 08:38:20;;;;;;;7.23;6.73;;;;;;;22.79;77.74;99243.47;5114527;28;20222;-71
2023/06/18 08:40:52;;;;;;;6.47;6.07;;;;;;;22.62;76.76;99248.47;5113910;28;20297;-71
2023/06/18 08:43:22;;;;;;;10.27;7.00;;;;;;;22.66;77.60;99246.81;5114153;28;20291;-71
2023/06/18 08:45:52;;;;;;;7.43;7.03;;;;;;;22.77;77.32;99245.69;5114440;28;20187;-74
2023/06/18 08:48:25;;;;;;;7.17;6.60;;;;;;;22.83;77.88;99249.94;5114154;28;20187;-72
2023/06/18 08:50:59;;;;;;;8.03;6.87;;;;;;;22.82;77.51;99252.97;5114519;28;20255;-71
2023/06/18 08:53:35;;;;;;;7.63;6.97;;;;;;;22.93;77.68;99254.50;5114149;28;20186;-72
2023/06/18 08:56:04;;;;;;;11.73;6.87;;;;;;;23.15;77.44;99257.59;5114219;28;20649;-72
2023/06/18 08:58:38;;;;;;;7.97;7.43;;;;;;;23.20;77.31;99258.38;5113868;28;20195;-71
2023/06/18 09:01:05;;;;;;;6.90;6.50;;;;;;;23.42;76.57;99258.75;5114254;28;20280;-71
2023/06/18 09:03:33;;;;;;;7.77;7.30;;;;;;;23.43;75.94;99254.94;5113814;28;20255;-72
2023/06/18 09:06:01;;;;;;;6.80;6.40;;;;;;;23.40;74.95;99260.91;5113825;28;20202;-73
2023/06/18 09:08:28;;;;;;;6.47;6.13;;;;;;;23.57;74.80;99258.59;5113971;28;20252;-71
2023/06/18 09:10:55;;;;;;;6.60;6.10;;;;;;;23.56;75.07;99269.75;5113399;28;20199;-71
2023/06/18 09:13:23;;;;;;;6.50;6.07;;;;;;;23.61;74.42;99256.94;5113544;28;20266;-72
2023/06/18 09:15:50;;;;;;;6.90;6.40;;;;;;;23.46;75.01;99257.09;5113339;28;20620;-72
2023/06/18 09:18:17;;;;;;;6.67;6.17;;;;;;;23.33;74.57;99265.88;5113310;28;20244;-73
2023/06/18 09:20:45;;;;;;;6.83;6.33;;;;;;;23.50;74.00;99265.44;5113517;28;20282;-71
2023/06/18 09:23:11;;;;;;;7.47;6.07;;;;;;;23.44;73.94;99270.09;5113475;28;20188;-72
2023/06/18 09:25:38;;;;;;;6.00;5.60;;;;;;;23.42;73.74;99275.03;5113514;28;20655;-72
2023/06/18 09:28:04;;;;;;;6.13;5.80;;;;;;;;;;5113647;28;20272;-73
2023/06/18 09:30:32;;;;;;;11.37;5.90;;;;;;;23.42;74.97;99261.47;5113297;28;20284;-72
2023/06/18 09:32:59;;;;;;;7.43;6.83;;;;;;;23.37;75.64;99266.13;5112461;28;20192;-71
2023/06/18 09:35:27;;;;;;;7.20;6.60;;;;;;;23.80;74.35;99265.16;5113041;28;20663;-71
2023/06/18 09:37:54;;;;;;;6.50;5.90;;;;;;;23.94;73.55;99258.78;5113443;28;20277;-72
2023/06/18 09:40:22;;;;;;;6.07;5.77;;;;;;;23.95;73.69;99257.69;5112929;28;20276;-72
2023/06/18 09:42:50;;;;;;;6.07;5.77;;;;;;;24.02;74.50;99260.84;5113619;28;20203;-71
2023/06/18 09:45:18;;;;;;;6.90;6.50;;;;;;;24.18;73.71;99256.09;5112786;28;20200;-73
2023/06/18 09:47:48;;;;;;;6.00;5.40;;;;;;;24.50;72.66;99257.00;5113027;28;20264;-71
2023/06/18 09:50:14;;;;;;;5.83;5.40;;;;;;;24.92;70.35;99262.41;5112950;28;20293;-71
2023/06/18 09:52:45;;;;;;;5.90;5.50;;;;;;;25.10;68.53;99240.97;5112371;28;20198;-70
2023/06/18 09:55:30;;;;;;;6.10;5.80;;;;;;;25.46;67.49;99259.13;5112486;28;20288;-71
2023/06/18 09:57:58;;;;;;;5.53;5.33;;;;;;;25.89;66.64;99254.28;5112889;28;20186;-71
2023/06/18 10:00:25;;;;;;;5.33;4.93;;;;;;;25.94;65.03;99249.56;5112170;28;20755;-72
2023/06/18 10:02:54;;;;;;;7.77;5.43;;;;;;;26.11;63.36;99266.13;5113080;28;20216;-71
2023/06/18 10:05:21;;;;;;;5.20;4.90;;;;;;;26.31;61.58;99273.06;5112501;28;20247;-71
2023/06/18 10:07:48;;;;;;;5.07;4.67;;;;;;;26.36;62.73;99262.06;5112969;28;20194;-70
2023/06/18 10:10:15;;;;;;;6.97;4.53;;;;;;;26.75;61.87;99262.34;5112464;28;20550;-71
2023/06/18 10:12:44;;;;;;;5.00;4.67;;;;;;;26.91;62.50;99258.94;5112885;28;20191;-71
2023/06/18 10:15:12;;;;;;;5.40;4.40;;;;;;;27.18;59.62;99272.50;5112540;28;20195;-71
2023/06/18 10:17:44;;;;;;;4.83;4.53;;;;;;;27.09;59.02;99268.06;5112594;28;20654;-71
2023/06/18 10:20:15;;;;;;;5.30;4.30;;;;;;;26.78;59.53;99261.72;5112446;28;20210;-71
2023/06/18 10:22:46;;;;;;;4.73;4.43;;;;;;;26.54;60.77;99255.69;5112662;28;20609;-71
2023/06/18 10:25:13;;;;;;;4.47;4.13;;;;;;;26.65;61.12;99262.53;5112600;28;20269;-71
2023/06/18 10:27:40;;;;;;;4.80;4.60;;;;;;;26.33;60.06;99252.56;5112228;28;20194;-71
2023/06/18 10:30:08;;;;;;;4.17;3.97;;;;;;;26.33;60.89;99262.69;5111593;28;20230;-72
2023/06/18 10:32:36;;;;;;;5.23;4.90;;;;;;;25.96;61.02;99243.84;5111938;28;20227;-71
2023/06/18 10:35:06;;;;;;;4.23;4.03;;;;;;;25.95;61.31;99251.19;5112320;28;20390;-71
2023/06/18 10:37:35;;;;;;;4.23;4.03;;;;;;;25.89;62.10;99244.19;5112532;28;20225;-71
2023/06/18 10:40:02;;;;;;;4.43;4.23;;;;;;;25.98;61.95;99242.41;5111968;28;20191;-70
2023/06/18 10:42:31;;;;;;;4.60;4.40;;;;;;;26.15;62.47;99241.81;5112210;28;20226;-71
2023/06/18 10:45:00;;;;;;;4.00;3.70;;;;;;;26.03;62.01;99239.59;5111958;28;20248;-71
2023/06/18 10:47:29;;;;;;;4.30;4.10;;;;;;;26.15;61.71;99241.81;5111742;28;20755;-71
2023/06/18 10:50:14;;;;;;;4.23;4.03;;;;;;;26.08;61.31;99246.84;5111995;28;20322;-71
2023/06/18 10:52:43;;;;;;;4.00;3.90;;;;;;;26.09;60.58;99248.47;5112757;28;20183;-71
2023/06/18 10:55:12;;;;;;;5.00;4.60;;;;;;;25.79;61.78;99238.94;5112454;28;20187;-71
2023/06/18 10:57:40;;;;;;;4.37;4.17;;;;;;;26.19;60.63;99242.81;5112656;28;20563;-71
2023/06/18 11:00:18;;;;;;;6.27;4.33;;;;;;;26.13;61.14;99227.69;5112438;28;20202;-71
2023/06/18 11:02:46;;;;;;;7.40;5.13;;;;;;;26.10;62.57;99226.38;5112763;28;20265;-71
2023/06/18 11:05:39;;;;;;;3.90;3.70;;;;;;;26.18;61.05;99230.31;5111919;28;20685;-71
2023/06/18 11:08:10;;;;;;;3.47;3.37;;;;;;;26.26;61.09;99221.44;5111945;28;20179;-71
2023/06/18 11:10:39;;;;;;;3.17;3.07;;;;;;;26.27;60.84;99223.84;5112198;28;20263;-71
2023/06/18 11:13:08;;;;;;;3.70;3.50;;;;;;;26.49;59.94;99214.91;5112297;28;20198;-71
2023/06/18 11:15:35;;;;;;;4.37;4.17;;;;;;;26.39;60.68;99226.03;5112316;28;20203;-71
2023/06/18 11:18:02;;;;;;;4.30;3.90;;;;;;;26.30;58.62;99227.88;5112139;28;20256;-71
2023/06/18 11:20:32;;;;;;;3.60;3.40;;;;;;;26.30;60.46;99216.97;5112420;28;20287;-71
2023/06/18 11:23:00;;;;;;;3.07;2.97;;;;;;;26.22;61.65;99221.25;5111965;28;20663;-71
2023/06/18 11:25:30;;;;;;;3.90;3.70;;;;;;;26.48;61.49;99211.41;5111658;28;20230;-72
2023/06/18 11:28:01;;;;;;;3.87;3.57;;;;;;;26.65;60.28;99218.94;5111815;28;20654;-71
2023/06/18 11:30:31;;;;;;;3.13;3.03;;;;;;;26.36;59.66;99211.13;5111220;28;20256;-72
2023/06/18 11:32:59;;;;;;;4.57;4.27;;;;;;;26.45;60.30;99208.50;5112112;28;20225;-72
2023/06/18 11:35:29;;;;;;;3.90;3.70;;;;;;;26.40;60.67;99203.13;5111704;28;20198;-71
2023/06/18 11:37:56;;;;;;;4.00;3.80;;;;;;;26.18;61.95;99203.06;5111757;28;20194;-72